O'Kean, AR

7:07 AM CDT on March 28, 2017 (GMT -0500)
MUP380 | | Change Station
Active Advisory: Dense Fog Advisory

Elev 272 ft 36.15 °N, 90.84 °W | Updated 1 day ago

Mostly Cloudy
Mostly Cloudy
58.0 °F
Feels Like 58.0 °F
N
-
Wind Variable Wind from North

Today
High -- | Low -- °F
--% Chance of Precip.
Yesterday
High -- | Low -- °F
Precip. -- in
Pressure 30.01 in
Visibility 10.0 miles
Clouds Mostly Cloudy 4800 ft
Dew Point Not available.
Humidity Not available.
Rainfall in
Snow Depth Not available.
6:54 AM 7:22 PM
New Moon, 0% visible
METAR KARG 281155Z AUTO 36006KT 10SM BKN048 12/09 A3001 RMK AO1 70053 10130 20120 52020
Pressure 30.01 in
Visibility 10.0 miles
Clouds Mostly Cloudy 4800 ft
Dew Point Not available.
Humidity Not available.
Rainfall in
Snow Depth Not available.
6:54 AM 7:22 PM
New Moon, 0% visible
METAR KARG 281155Z AUTO 36006KT 10SM BKN048 12/09 A3001 RMK AO1 70053 10130 20120 52020

Get Your Daily Forecast Email!

Thanks for signing up!

Be on the lookout for a verification email in your inbox.

You'll start receiving severe weather alerts in your inbox..

×

10-Day Weather Forecast

Almanac

Astronomy

Mar. 28, 2017 Rise Set
Actual Time
Civil Twilight
Nautical Twilight
Astronomical Twilight
Moon
Length of Visible Light
Length of Day
Tomorrow will be .
, % of the Moon is Illuminated

Today's Extremes

State Highs State Lows

Community

WunderPhotos

Upload Photos

1,962,540 photos uploaded!

WunderBlog® & News

Nearby

Air Quality

  Air Quality AQ Index Pollutant
Not available.

Snow Depth

Station Depth Elevation

Earthquake Activity

City Distance Mag. Time & Date
Minimum magnitude displayed is 2.5.

Earthquake Activity

City Distance Mag. Time & Date
Minimum magnitude displayed is 2.5.

Coastal Water Temperatures

Place Temperature

Stations

Nearby Weather Stations

Station Location Temp. Windchill Dew Point Humidity Wind Precip. Elev Updated Type
                   

Watches & Warnings

Dense Fog Advisory
Issued: 12:40 AM CDT Mar. 28, 2017 – National Weather Service

... Dense fog advisory in effect until 9 am CDT this morning...

The National Weather Service in Memphis has issued a dense fog
advisory, which is in effect until 9 am CDT this morning.

* Visibility... a quarter mile or less

* timing... through 9 am CDT

* impacts... if driving... slow down... use your low beam headlights... and
leave plenty of distance ahead of you.

Precautionary/preparedness actions...

A dense fog advisory means visibilities will frequently be
reduced to less than one quarter mile. If driving... slow down...
use your headlights... and leave plenty of distance ahead of you.



Krm